createdAt,value
2022-10-16T00:00:58.782Z,95.29
2022-10-16T00:03:30.775Z,95.64
2022-10-16T00:06:03.927Z,95.39
2022-10-16T00:08:36.553Z,95.40
2022-10-16T00:11:11.117Z,95.91
2022-10-16T00:13:46.105Z,94.79
2022-10-16T00:16:19.393Z,94.84
2022-10-16T00:18:51.406Z,95.58
2022-10-16T00:21:28.349Z,95.83
2022-10-16T00:24:05.766Z,95.87
2022-10-16T00:26:39.539Z,96.08
2022-10-16T00:29:11.596Z,95.71
2022-10-16T00:31:43.506Z,95.96
2022-10-16T00:34:15.560Z,95.77
2022-10-16T00:36:47.850Z,96.78
2022-10-16T00:39:20.619Z,95.80
2022-10-16T00:41:52.661Z,96.08
2022-10-16T00:44:56.863Z,96.19
2022-10-16T00:47:50.077Z,95.18
2022-10-16T00:50:35.879Z,96.19
2022-10-16T00:53:08.087Z,95.70
2022-10-16T00:55:42.489Z,96.32
2022-10-16T00:58:14.714Z,96.46
2022-10-16T01:00:46.733Z,96.49
2022-10-16T01:03:34.346Z,96.32
2022-10-16T01:09:23.218Z,96.28
2022-10-16T01:12:20.969Z,96.88
2022-10-16T01:18:39.207Z,97.19
2022-10-16T01:21:23.953Z,96.79
2022-10-16T01:24:19.637Z,97.67
2022-10-16T01:27:08.626Z,97.33
2022-10-16T01:29:54.176Z,97.44
2022-10-16T01:32:39.333Z,96.60
2022-10-16T01:35:24.390Z,97.04
2022-10-16T01:38:22.659Z,97.29
2022-10-16T01:41:22.159Z,97.50
2022-10-16T01:44:12.912Z,96.82
2022-10-16T01:46:50.069Z,97.56
2022-10-16T01:49:24.527Z,97.13
2022-10-16T01:54:36.695Z,97.43
2022-10-16T01:57:09.648Z,97.59
2022-10-16T01:59:52.823Z,97.77
2022-10-16T02:02:29.663Z,97.38
2022-10-16T02:05:32.538Z,98.27
2022-10-16T02:08:05.804Z,97.86
2022-10-16T02:10:38.923Z,97.71
2022-10-16T02:13:23.254Z,98.42
2022-10-16T02:15:55.208Z,97.67
2022-10-16T02:18:30.319Z,97.66
2022-10-16T02:21:24.825Z,97.72
2022-10-16T02:24:12.842Z,98.53
2022-10-16T02:27:12.992Z,98.10
2022-10-16T02:29:51.516Z,98.56
2022-10-16T02:32:31.581Z,97.65
2022-10-16T02:35:05.447Z,97.48
2022-10-16T02:37:39.676Z,97.40
2022-10-16T02:40:12.373Z,97.32
2022-10-16T02:42:44.825Z,97.24
2022-10-16T02:45:16.779Z,97.99
2022-10-16T02:47:49.530Z,97.85
2022-10-16T02:50:21.805Z,98.42
2022-10-16T02:52:53.986Z,98.24
2022-10-16T02:55:25.928Z,98.29
2022-10-16T02:57:58.111Z,98.66
2022-10-16T03:00:30.127Z,98.57
2022-10-16T03:03:02.119Z,99.09
2022-10-16T03:05:34.127Z,98.41
2022-10-16T03:08:06.200Z,98.45
2022-10-16T03:10:38.198Z,98.37
2022-10-16T03:13:10.217Z,99.24
2022-10-16T03:15:42.137Z,98.53
2022-10-16T03:18:14.212Z,98.43
2022-10-16T03:20:46.251Z,97.92
2022-10-16T03:23:18.383Z,98.28
2022-10-16T03:25:50.391Z,97.75
2022-10-16T03:28:22.515Z,98.25
2022-10-16T03:30:54.465Z,98.14
2022-10-16T03:33:26.470Z,98.25
2022-10-16T03:35:58.483Z,98.79
2022-10-16T03:38:30.496Z,98.18
2022-10-16T03:41:02.626Z,98.56
2022-10-16T03:43:34.810Z,98.56
2022-10-16T03:46:06.762Z,98.60
2022-10-16T03:48:38.750Z,98.61
2022-10-16T03:51:10.820Z,98.95
2022-10-16T03:53:42.805Z,99.32
2022-10-16T03:56:14.713Z,99.54
2022-10-16T03:58:46.719Z,99.64
2022-10-16T04:01:18.695Z,100.00
2022-10-16T04:03:50.706Z,100.00
2022-10-16T04:06:22.755Z,100.00
2022-10-16T04:08:54.698Z,100.00
2022-10-16T04:11:26.580Z,100.00
2022-10-16T04:13:58.625Z,100.00
2022-10-16T04:16:30.608Z,100.00
2022-10-16T04:19:03.104Z,100.00
2022-10-16T04:21:38.274Z,100.00
2022-10-16T04:24:11.671Z,100.00
2022-10-16T04:26:43.588Z,100.00
2022-10-16T04:29:15.492Z,100.00
2022-10-16T04:31:48.057Z,100.00
2022-10-16T04:34:20.010Z,100.00
2022-10-16T04:36:51.903Z,100.00
2022-10-16T04:39:23.826Z,100.00
2022-10-16T04:41:55.715Z,100.00
2022-10-16T04:44:27.668Z,100.00
2022-10-16T04:46:59.588Z,100.00
2022-10-16T04:49:31.574Z,100.00
2022-10-16T04:52:03.660Z,100.00
2022-10-16T04:54:35.714Z,100.00
2022-10-16T04:57:07.692Z,100.00
2022-10-16T04:59:39.647Z,100.00
2022-10-16T05:02:11.533Z,100.00
2022-10-16T05:04:43.475Z,100.00
2022-10-16T05:07:15.367Z,100.00
2022-10-16T05:09:47.333Z,100.00
2022-10-16T05:12:21.516Z,100.00
2022-10-16T05:14:53.498Z,100.00
2022-10-16T05:17:28.909Z,100.00
2022-10-16T05:20:01.141Z,100.00
2022-10-16T05:22:33.135Z,100.00
2022-10-16T05:25:05.675Z,100.00
2022-10-16T05:27:37.738Z,100.00
2022-10-16T05:30:12.394Z,100.00
2022-10-16T05:32:52.159Z,100.00
2022-10-16T05:35:24.204Z,100.00
2022-10-16T05:37:56.215Z,100.00
2022-10-16T05:40:28.151Z,100.00
2022-10-16T05:43:00.045Z,100.00
2022-10-16T05:45:32.228Z,100.00
2022-10-16T05:48:04.437Z,100.00
2022-10-16T05:50:36.393Z,100.00
2022-10-16T05:53:08.335Z,100.00
2022-10-16T05:55:40.290Z,100.00
2022-10-16T05:58:12.187Z,100.00
2022-10-16T06:00:44.205Z,100.00
2022-10-16T06:03:16.189Z,100.00
2022-10-16T06:05:48.111Z,100.00
2022-10-16T06:08:22.731Z,100.00
2022-10-16T06:11:10.886Z,100.00
2022-10-16T06:13:43.669Z,100.00
2022-10-16T06:16:15.709Z,100.00
2022-10-16T06:18:47.863Z,100.00
2022-10-16T06:21:26.014Z,100.00
2022-10-16T06:23:58.969Z,100.00
2022-10-16T06:26:32.714Z,100.00
2022-10-16T06:29:04.709Z,100.00
2022-10-16T06:31:36.752Z,100.00
2022-10-16T06:34:12.569Z,100.00
2022-10-16T06:36:44.579Z,100.00
2022-10-16T06:39:16.508Z,100.00
2022-10-16T06:41:48.463Z,100.00
2022-10-16T06:44:20.584Z,100.00
2022-10-16T06:46:52.622Z,100.00
2022-10-16T06:49:24.885Z,100.00
2022-10-16T06:51:56.852Z,100.00
2022-10-16T06:54:29.373Z,100.00
2022-10-16T06:57:02.833Z,100.00
2022-10-16T06:59:34.741Z,100.00
2022-10-16T07:02:08.088Z,100.00
2022-10-16T07:04:40.012Z,100.00
2022-10-16T07:07:11.978Z,100.00
2022-10-16T07:09:43.878Z,100.00
2022-10-16T07:12:15.814Z,100.00
2022-10-16T07:14:47.815Z,100.00
2022-10-16T07:17:19.706Z,100.00
2022-10-16T07:19:54.197Z,100.00
2022-10-16T07:22:26.354Z,100.00
2022-10-16T07:24:58.599Z,100.00
2022-10-16T07:27:30.584Z,99.17
2022-10-16T07:30:05.098Z,99.07
2022-10-16T07:32:40.232Z,98.41
2022-10-16T07:35:12.199Z,98.65
2022-10-16T07:37:47.861Z,97.73
2022-10-16T07:40:19.812Z,97.09
2022-10-16T07:42:51.746Z,96.78
2022-10-16T07:45:23.679Z,95.99
2022-10-16T07:47:56.530Z,96.43
2022-10-16T07:50:28.481Z,96.31
2022-10-16T07:53:00.391Z,96.19
2022-10-16T07:55:32.316Z,95.64
2022-10-16T07:58:05.001Z,95.68
2022-10-16T08:00:38.434Z,96.53
2022-10-16T08:03:10.358Z,96.66
2022-10-16T08:05:42.412Z,96.38
2022-10-16T08:08:19.164Z,94.84
2022-10-16T08:10:51.140Z,94.04
2022-10-16T08:13:23.602Z,93.09
2022-10-16T08:15:56.331Z,92.39
2022-10-16T08:18:28.413Z,90.88
2022-10-16T08:21:01.406Z,91.40
2022-10-16T08:23:34.024Z,90.11
2022-10-16T08:26:08.822Z,90.16
2022-10-16T08:28:40.886Z,90.01
2022-10-16T08:34:07.904Z,89.29
2022-10-16T08:36:40.028Z,89.20
2022-10-16T08:39:12.056Z,89.05
2022-10-16T08:42:34.503Z,88.25
2022-10-16T08:45:20.989Z,87.77
2022-10-16T08:48:24.219Z,87.52
2022-10-16T08:50:56.525Z,87.37
2022-10-16T08:53:59.527Z,87.56
2022-10-16T08:56:35.192Z,86.85
2022-10-16T08:59:12.206Z,86.93
2022-10-16T09:01:51.295Z,87.28
2022-10-16T09:04:57.449Z,86.49
2022-10-16T09:07:39.836Z,85.38
2022-10-16T09:10:36.152Z,85.78
2022-10-16T09:13:49.988Z,84.21
2022-10-16T09:16:38.098Z,84.77
2022-10-16T09:20:04.887Z,83.59
2022-10-16T09:22:37.284Z,83.35
2022-10-16T09:25:27.400Z,83.26
2022-10-16T09:27:59.569Z,81.57
2022-10-16T09:30:31.612Z,79.85
2022-10-16T09:33:04.082Z,79.70
2022-10-16T09:35:53.004Z,77.02
2022-10-16T09:38:34.352Z,76.31
2022-10-16T09:41:23.345Z,75.65
2022-10-16T09:44:01.537Z,74.93
2022-10-16T09:46:36.310Z,74.36
2022-10-16T09:49:27.084Z,73.99
2022-10-16T09:52:15.812Z,74.54
2022-10-16T09:54:56.100Z,72.26
2022-10-16T09:57:29.119Z,70.32
2022-10-16T10:00:11.008Z,70.95
2022-10-16T10:02:43.041Z,70.75
2022-10-16T10:05:29.942Z,71.40
2022-10-16T10:08:09.442Z,70.32
2022-10-16T10:10:44.097Z,68.64
2022-10-16T10:13:24.060Z,60.87
2022-10-16T10:15:56.249Z,51.79
2022-10-16T10:18:28.291Z,45.91
2022-10-16T10:21:02.588Z,41.04
2022-10-16T10:23:34.604Z,38.45
2022-10-16T10:26:22.393Z,38.69
2022-10-16T10:29:12.453Z,43.39
2022-10-16T10:32:15.878Z,49.57
2022-10-16T10:35:14.270Z,53.08
2022-10-16T10:37:55.149Z,55.81
2022-10-16T10:40:51.119Z,60.78
2022-10-16T10:43:28.991Z,61.52
2022-10-16T10:46:06.040Z,61.97
2022-10-16T10:49:16.371Z,62.81
2022-10-16T10:52:06.358Z,62.49
2022-10-16T10:54:51.712Z,62.00
2022-10-16T10:57:29.580Z,61.46
2022-10-16T11:00:47.915Z,61.47
2022-10-16T11:04:05.136Z,62.63
2022-10-16T11:06:51.730Z,62.57
2022-10-16T11:09:33.756Z,63.22
2022-10-16T11:12:13.326Z,63.76
2022-10-16T11:15:11.716Z,64.50
2022-10-16T11:17:49.888Z,65.43
2022-10-16T11:20:26.961Z,63.68
2022-10-16T11:23:32.314Z,62.55
2022-10-16T11:26:14.652Z,61.35
2022-10-16T11:28:59.386Z,61.43
2022-10-16T11:31:45.088Z,61.72
2022-10-16T11:34:27.440Z,61.93
2022-10-16T11:37:11.868Z,60.80
2022-10-16T11:39:45.411Z,61.83
2022-10-16T11:42:43.905Z,60.41
2022-10-16T11:45:51.258Z,59.09
2022-10-16T11:49:00.720Z,56.38
2022-10-16T11:51:46.733Z,57.73
2022-10-16T11:54:48.673Z,56.83
2022-10-16T11:57:37.840Z,56.32
2022-10-16T12:00:41.151Z,55.67
2022-10-16T12:03:32.307Z,53.84
2022-10-16T12:06:37.462Z,54.67
2022-10-16T12:09:38.980Z,57.23
2022-10-16T12:12:37.125Z,55.00
2022-10-16T12:15:57.578Z,54.40
2022-10-16T12:18:27.322Z,54.45
2022-10-16T12:21:05.665Z,55.33
2022-10-16T12:23:53.653Z,56.18
2022-10-16T12:26:31.821Z,56.28
2022-10-16T12:29:24.470Z,55.29
2022-10-16T12:31:58.326Z,54.12
2022-10-16T12:34:40.356Z,51.74
2022-10-16T12:37:33.305Z,52.43
2022-10-16T12:40:37.401Z,50.62
2022-10-16T12:43:38.589Z,53.41
2022-10-16T12:46:10.432Z,52.13
2022-10-16T12:48:49.441Z,52.09
2022-10-16T12:51:33.965Z,51.26
2022-10-16T12:54:31.574Z,50.49
2022-10-16T12:57:42.424Z,50.88
2022-10-16T13:00:33.308Z,51.02
2022-10-16T13:03:49.429Z,51.09
2022-10-16T13:06:52.180Z,51.61
2022-10-16T13:09:59.483Z,52.12
2022-10-16T13:12:56.907Z,53.40
2022-10-16T13:15:51.640Z,51.88
2022-10-16T13:19:11.186Z,51.52
2022-10-16T13:22:03.338Z,51.78
2022-10-16T13:24:58.256Z,51.56
2022-10-16T13:27:57.757Z,50.34
2022-10-16T13:30:44.972Z,49.88
2022-10-16T13:33:36.107Z,50.63
2022-10-16T13:36:08.297Z,50.30
2022-10-16T13:38:40.286Z,50.15
2022-10-16T13:41:18.672Z,48.50
2022-10-16T13:43:54.222Z,50.86
2022-10-16T13:46:27.451Z,51.87
2022-10-16T13:49:13.967Z,50.00
2022-10-16T13:51:57.896Z,50.76
2022-10-16T13:54:30.031Z,51.08
2022-10-16T13:57:26.204Z,51.18
2022-10-16T13:59:59.358Z,51.32
2022-10-16T14:02:40.877Z,50.80
2022-10-16T14:05:15.979Z,51.23
2022-10-16T14:07:52.935Z,50.64
2022-10-16T14:10:31.352Z,50.88
2022-10-16T14:13:07.070Z,50.56
2022-10-16T14:15:39.237Z,49.39
2022-10-16T14:18:23.069Z,50.45
2022-10-16T14:20:58.415Z,48.74
2022-10-16T14:23:38.481Z,49.15
2022-10-16T14:26:10.343Z,49.64
2022-10-16T14:28:44.384Z,49.11
2022-10-16T14:31:34.588Z,48.13
2022-10-16T14:34:25.659Z,48.82
2022-10-16T14:37:02.010Z,49.47
2022-10-16T14:39:35.124Z,49.73
2022-10-16T14:42:18.802Z,50.25
2022-10-16T14:44:56.889Z,49.88
2022-10-16T14:47:29.660Z,50.56
2022-10-16T14:50:01.889Z,49.65
2022-10-16T14:52:34.746Z,50.05
2022-10-16T14:55:08.314Z,51.14
2022-10-16T14:57:40.702Z,50.96
2022-10-16T15:00:24.764Z,51.19
2022-10-16T15:02:56.773Z,51.17
2022-10-16T15:05:29.145Z,50.88
2022-10-16T15:08:01.146Z,51.48
2022-10-16T15:10:40.353Z,51.12
2022-10-16T15:13:15.399Z,52.22
2022-10-16T15:15:50.349Z,52.17
2022-10-16T15:18:23.233Z,52.59
2022-10-16T15:20:55.267Z,52.81
2022-10-16T15:23:27.432Z,53.89
2022-10-16T15:26:00.496Z,54.16
2022-10-16T15:28:32.477Z,54.26
2022-10-16T15:31:06.456Z,55.09
2022-10-16T15:33:39.953Z,55.07
2022-10-16T15:36:12.353Z,55.37
2022-10-16T15:38:45.076Z,55.51
2022-10-16T15:41:17.037Z,56.51
2022-10-16T15:43:52.829Z,56.60
2022-10-16T15:46:25.611Z,57.09
2022-10-16T15:48:59.519Z,58.01
2022-10-16T15:51:34.141Z,58.08
2022-10-16T15:54:06.526Z,58.27
2022-10-16T15:56:38.825Z,58.87
2022-10-16T15:59:10.754Z,60.60
2022-10-16T16:01:44.257Z,59.86
2022-10-16T16:04:42.233Z,60.29
2022-10-16T16:07:10.030Z,62.61
2022-10-16T16:09:42.067Z,61.49
2022-10-16T16:12:14.015Z,62.66
2022-10-16T16:14:47.235Z,64.15
2022-10-16T16:17:19.421Z,66.20
2022-10-16T16:19:52.146Z,67.07
2022-10-16T16:22:24.235Z,68.08
2022-10-16T16:24:56.247Z,69.32
2022-10-16T16:27:31.010Z,70.09
2022-10-16T16:30:04.634Z,70.88
2022-10-16T16:32:36.950Z,72.19
2022-10-16T16:35:09.094Z,72.34
2022-10-16T16:37:41.093Z,72.71
2022-10-16T16:40:13.058Z,74.22
2022-10-16T16:42:45.091Z,74.39
2022-10-16T16:45:17.146Z,74.79
2022-10-16T16:47:49.135Z,75.30
2022-10-16T16:50:21.061Z,76.57
2022-10-16T16:52:53.056Z,77.28
2022-10-16T16:55:24.972Z,78.03
2022-10-16T16:57:57.820Z,78.54
2022-10-16T17:00:30.144Z,78.64
2022-10-16T17:03:02.118Z,79.27
2022-10-16T17:05:34.063Z,79.80
2022-10-16T17:08:09.609Z,79.60
2022-10-16T17:10:45.249Z,80.02
2022-10-16T17:13:17.443Z,80.41
2022-10-16T17:15:51.822Z,81.01
2022-10-16T17:18:25.266Z,81.46
2022-10-16T17:21:02.068Z,81.71
2022-10-16T17:23:35.400Z,82.34
2022-10-16T17:26:16.273Z,82.29
2022-10-16T17:28:53.785Z,82.65
2022-10-16T17:31:32.981Z,83.04
2022-10-16T17:34:08.062Z,83.33
2022-10-16T17:36:44.291Z,83.86
2022-10-16T17:39:20.545Z,84.27
2022-10-16T17:41:52.487Z,84.26
2022-10-16T17:44:24.524Z,84.51
2022-10-16T17:46:56.525Z,84.30
2022-10-16T17:49:28.649Z,84.29
2022-10-16T17:52:03.078Z,84.71
2022-10-16T17:54:35.046Z,84.72
2022-10-16T17:57:07.011Z,85.13
2022-10-16T17:59:38.968Z,85.51
2022-10-16T18:02:11.996Z,85.43
2022-10-16T18:04:44.174Z,85.57
2022-10-16T18:07:16.996Z,86.11
2022-10-16T18:10:09.894Z,86.44
2022-10-16T18:12:41.317Z,86.50
2022-10-16T18:15:13.458Z,86.44
2022-10-16T18:17:45.408Z,86.57
2022-10-16T18:20:17.525Z,86.88
2022-10-16T18:22:49.591Z,86.98
2022-10-16T18:25:21.580Z,87.33
2022-10-16T18:27:53.488Z,88.03
2022-10-16T18:30:25.442Z,87.99
2022-10-16T18:32:57.383Z,88.13
2022-10-16T18:35:29.352Z,87.55
2022-10-16T18:38:01.263Z,87.73
2022-10-16T18:40:36.007Z,87.97
2022-10-16T18:43:07.994Z,88.09
2022-10-16T18:45:40.132Z,88.16
2022-10-16T18:48:12.153Z,88.02
2022-10-16T18:50:44.044Z,87.88
2022-10-16T18:53:16.086Z,88.06
2022-10-16T18:55:54.239Z,88.18
2022-10-16T18:58:26.168Z,88.45
2022-10-16T19:01:05.293Z,88.46
2022-10-16T19:03:38.876Z,88.32
2022-10-16T19:06:15.224Z,88.57
2022-10-16T19:08:47.164Z,89.05
2022-10-16T19:11:22.387Z,89.17
2022-10-16T19:13:56.815Z,88.93
2022-10-16T19:16:32.792Z,88.77
2022-10-16T19:19:07.920Z,88.74
2022-10-16T19:21:40.983Z,89.29
2022-10-16T19:24:15.507Z,89.45
2022-10-16T19:26:48.400Z,88.96
2022-10-16T19:29:20.467Z,88.88
2022-10-16T19:31:52.379Z,89.02
2022-10-16T19:34:24.333Z,89.18
2022-10-16T19:36:56.764Z,89.11
2022-10-16T19:39:28.713Z,88.81
2022-10-16T19:42:00.849Z,88.82
2022-10-16T19:44:32.864Z,88.79
2022-10-16T19:47:04.885Z,89.10
2022-10-16T19:49:36.872Z,88.90
2022-10-16T19:52:08.845Z,89.35
2022-10-16T19:54:40.892Z,89.23
2022-10-16T19:57:12.968Z,88.82
2022-10-16T19:59:45.799Z,88.86
2022-10-16T20:02:17.883Z,88.88
2022-10-16T20:04:49.840Z,89.16
2022-10-16T20:07:23.072Z,89.13
2022-10-16T20:09:54.986Z,89.39
2022-10-16T20:12:26.943Z,89.44
2022-10-16T20:14:58.934Z,89.35
2022-10-16T20:17:30.983Z,89.52
2022-10-16T20:20:02.986Z,89.14
2022-10-16T20:22:34.884Z,89.00
2022-10-16T20:25:10.005Z,88.76
2022-10-16T20:27:42.225Z,88.93
2022-10-16T20:30:14.163Z,88.90
2022-10-16T20:32:46.234Z,89.19
2022-10-16T20:35:18.473Z,89.77
2022-10-16T20:37:50.698Z,89.53
2022-10-16T20:40:22.703Z,89.15
2022-10-16T20:42:54.694Z,89.47
2022-10-16T20:45:29.840Z,89.65
2022-10-16T20:48:01.792Z,90.04
2022-10-16T20:50:34.064Z,89.90
2022-10-16T20:53:07.163Z,89.74
2022-10-16T20:55:39.098Z,89.21
2022-10-16T20:58:12.664Z,88.78
2022-10-16T21:00:44.851Z,88.74
2022-10-16T21:03:16.909Z,88.86
2022-10-16T21:05:48.865Z,88.36
2022-10-16T21:08:20.775Z,88.17
2022-10-16T21:10:52.694Z,88.10
2022-10-16T21:13:28.178Z,88.07
2022-10-16T21:16:03.596Z,88.18
2022-10-16T21:18:35.603Z,87.39
2022-10-16T21:21:07.591Z,87.94
2022-10-16T21:23:39.560Z,88.08
2022-10-16T21:26:11.501Z,87.37
2022-10-16T21:28:43.552Z,87.06
2022-10-16T21:31:19.801Z,87.11
2022-10-16T21:33:52.869Z,86.64
2022-10-16T21:36:28.808Z,86.86
2022-10-16T21:39:09.172Z,86.11
2022-10-16T21:41:42.464Z,86.14
2022-10-16T21:44:15.039Z,85.94
2022-10-16T21:46:47.366Z,86.06
2022-10-16T21:49:19.802Z,85.75
2022-10-16T21:51:51.922Z,86.31
2022-10-16T21:54:24.662Z,86.36
2022-10-16T21:56:57.033Z,86.82
2022-10-16T21:59:29.069Z,86.76
2022-10-16T22:02:03.257Z,87.60
2022-10-16T22:04:35.440Z,87.63
2022-10-16T22:07:07.443Z,88.48
2022-10-16T22:09:39.334Z,88.49
2022-10-16T22:12:11.238Z,88.23
2022-10-16T22:14:43.149Z,88.46
2022-10-16T22:17:15.098Z,88.94
2022-10-16T22:19:47.065Z,89.33
2022-10-16T22:22:19.015Z,89.08
2022-10-16T22:24:50.925Z,88.35
2022-10-16T22:27:23.313Z,88.78
2022-10-16T22:29:55.199Z,88.99
2022-10-16T22:32:27.089Z,88.86
2022-10-16T22:34:59.014Z,88.62
2022-10-16T22:37:30.924Z,88.90
2022-10-16T22:40:02.877Z,89.26
2022-10-16T22:42:34.794Z,89.50
2022-10-16T22:45:07.178Z,89.22
2022-10-16T22:47:39.101Z,89.25
2022-10-16T22:50:11.025Z,89.38
2022-10-16T22:52:42.968Z,89.25
2022-10-16T22:55:14.956Z,89.20
2022-10-16T22:57:46.916Z,89.22
2022-10-16T23:00:20.032Z,89.52
2022-10-16T23:02:52.018Z,89.30
2022-10-16T23:05:23.959Z,89.30
2022-10-16T23:07:55.872Z,88.90
2022-10-16T23:10:29.874Z,89.15
2022-10-16T23:13:01.835Z,89.13
2022-10-16T23:15:33.802Z,88.76
2022-10-16T23:18:05.774Z,88.63
2022-10-16T23:20:41.329Z,89.01
2022-10-16T23:23:13.222Z,89.03
2022-10-16T23:25:49.694Z,89.20
2022-10-16T23:28:21.649Z,88.54
2022-10-16T23:30:53.571Z,88.53
2022-10-16T23:33:25.477Z,88.56
2022-10-16T23:35:57.398Z,88.32
2022-10-16T23:38:29.477Z,88.58
2022-10-16T23:41:01.748Z,88.40
2022-10-16T23:43:33.876Z,88.39
2022-10-16T23:46:08.800Z,88.35
2022-10-16T23:48:41.375Z,88.04
2022-10-16T23:51:13.548Z,87.68
2022-10-16T23:53:45.556Z,87.57
2022-10-16T23:56:17.504Z,87.98
2022-10-16T23:58:49.558Z,87.69
